Time;durP1;ratioP1;P1;durP2;ratioP2;P2;SDS_P1;SDS_P2;PMS_P1;PMS_P2;Temp;Humidity;BMP_temperature;BMP_pressure;BME280_temperature;BME280_humidity;BME280_pressure;Samples;Min_cycle;Max_cycle;Signal;HPM_P1;HPM_P2
2022/07/25 00:00:31;;;;;;;4.72;1.30;;;23.60;51.00;;;;;;4997420;28;20022;-77
2022/07/25 00:02:57;;;;;;;2.28;1.30;;;23.60;51.20;;;;;;4996997;28;20042;-77
2022/07/25 00:05:22;;;;;;;2.33;1.20;;;23.60;51.40;;;;;;4996645;28;20551;-77
2022/07/25 00:07:48;;;;;;;4.30;1.38;;;23.50;51.20;;;;;;4997316;28;20081;-78
2022/07/25 00:10:14;;;;;;;1.80;1.20;;;23.50;51.30;;;;;;4997145;28;20022;-77
2022/07/25 00:12:41;;;;;;;3.28;1.20;;;23.40;51.90;;;;;;4995316;28;20049;-77
2022/07/25 00:15:12;;;;;;;2.05;1.05;;;23.30;52.00;;;;;;4996966;28;20053;-77
2022/07/25 00:17:38;;;;;;;2.85;1.30;;;23.40;51.70;;;;;;4997085;28;20030;-77
2022/07/25 00:20:04;;;;;;;3.00;1.10;;;23.30;52.20;;;;;;4996595;28;20497;-77
2022/07/25 00:22:30;;;;;;;2.17;1.23;;;23.20;52.30;;;;;;4996248;28;20065;-77
2022/07/25 00:24:55;;;;;;;3.20;0.93;;;23.20;52.50;;;;;;4996367;28;20026;-77
2022/07/25 00:27:21;;;;;;;2.95;1.17;;;23.20;52.80;;;;;;4996602;28;20047;-77
2022/07/25 00:29:47;;;;;;;2.60;1.08;;;23.20;52.70;;;;;;4996709;28;20022;-77
2022/07/25 00:32:15;;;;;;;3.55;1.50;;;23.10;53.00;;;;;;4996835;28;20038;-77
2022/07/25 00:34:41;;;;;;;1.77;1.05;;;23.00;53.40;;;;;;5011504;28;20022;-77
2022/07/25 00:37:07;;;;;;;2.53;1.10;;;23.00;53.10;;;;;;4996917;28;20037;-77
2022/07/25 00:39:32;;;;;;;2.25;1.25;;;22.90;53.30;;;;;;4995848;28;20081;-77
2022/07/25 00:41:58;;;;;;;4.60;1.17;;;22.90;53.30;;;;;;4996384;28;20042;-77
2022/07/25 00:44:29;;;;;;;2.03;1.27;;;22.90;53.30;;;;;;4996498;28;20030;-77
2022/07/25 00:46:55;;;;;;;2.75;1.30;;;22.90;53.80;;;;;;4995993;28;20113;-77
2022/07/25 00:49:24;;;;;;;4.53;1.35;;;22.80;53.30;;;;;;4995356;28;20049;-77
2022/07/25 00:51:51;;;;;;;2.47;1.38;;;22.80;53.60;;;;;;4995356;28;20030;-77
2022/07/25 00:54:17;;;;;;;2.38;1.20;;;22.80;53.80;;;;;;4996369;28;20434;-77
2022/07/25 00:56:43;;;;;;;4.50;1.33;;;22.80;54.20;;;;;;4995814;28;20065;-77
2022/07/25 00:59:09;;;;;;;1.63;1.05;;;22.70;54.10;;;;;;4995725;28;20015;-77
2022/07/25 01:01:36;;;;;;;2.10;1.23;;;22.70;54.60;;;;;;4996430;28;20501;-77
2022/07/25 01:04:02;;;;;;;4.22;1.25;;;22.60;55.30;;;;;;4995769;28;20482;-77
2022/07/25 01:06:28;;;;;;;2.42;1.30;;;22.60;55.10;;;;;;4995811;28;20031;-77
2022/07/25 01:08:54;;;;;;;2.38;1.42;;;22.50;55.20;;;;;;4995100;28;20017;-77
2022/07/25 01:11:21;;;;;;;1.35;1.10;;;22.50;55.60;;;;;;5011459;28;20460;-77
2022/07/25 01:13:47;;;;;;;2.72;1.23;;;22.40;55.70;;;;;;4996153;28;20537;-77
2022/07/25 01:16:12;;;;;;;2.47;1.60;;;22.50;55.70;;;;;;4994698;28;20058;-77
2022/07/25 01:18:38;;;;;;;1.80;1.33;;;22.50;55.20;;;;;;4994627;28;20076;-77
2022/07/25 01:21:05;;;;;;;1.58;1.15;;;22.40;56.40;;;;;;4995531;28;20084;-77
2022/07/25 01:23:33;;;;;;;1.67;1.20;;;22.40;56.10;;;;;;4996307;28;20602;-77
2022/07/25 01:25:58;;;;;;;2.90;1.23;;;22.40;56.30;;;;;;4995259;28;20031;-77
2022/07/25 01:28:24;;;;;;;2.20;1.38;;;22.30;56.40;;;;;;4995820;28;20030;-77
2022/07/25 01:30:50;;;;;;;3.83;1.17;;;22.30;56.90;;;;;;4995825;28;20693;-77
2022/07/25 01:33:20;;;;;;;5.07;1.70;;;22.30;56.80;;;;;;4995381;28;20046;-77
2022/07/25 01:35:47;;;;;;;2.10;1.30;;;22.30;56.70;;;;;;4995143;28;20061;-77
2022/07/25 01:38:14;;;;;;;3.30;1.27;;;22.20;57.10;;;;;;4994747;28;20030;-77
2022/07/25 01:40:43;;;;;;;2.42;1.35;;;22.20;57.40;;;;;;4995754;28;20034;-77
2022/07/25 01:43:09;;;;;;;2.55;1.27;;;22.10;58.00;;;;;;4995858;28;20027;-77
2022/07/25 01:45:36;;;;;;;2.70;1.20;;;22.20;58.30;;;;;;4995231;28;20038;-77
2022/07/25 01:48:02;;;;;;;2.55;1.08;;;22.10;58.20;;;;;;5009262;28;20034;-77
2022/07/25 01:50:27;;;;;;;1.83;1.20;;;22.10;58.10;;;;;;5010682;28;20116;-77
2022/07/25 01:52:53;;;;;;;1.92;1.02;;;22.10;58.40;;;;;;4994660;28;20438;-77
2022/07/25 01:55:19;;;;;;;2.35;1.17;;;22.10;58.60;;;;;;4995647;28;20037;-77
2022/07/25 01:57:48;;;;;;;2.15;1.00;;;22.00;58.40;;;;;;4995084;28;20853;-77
2022/07/25 02:00:14;;;;;;;2.00;1.30;;;22.00;59.00;;;;;;4995594;28;20026;-77
2022/07/25 02:02:42;;;;;;;3.28;1.38;;;22.00;59.00;;;;;;4995190;28;20026;-77
2022/07/25 02:05:10;;;;;;;2.95;1.15;;;22.00;59.80;;;;;;4999198;28;20493;-77
2022/07/25 02:07:36;;;;;;;1.60;1.27;;;21.90;59.50;;;;;;4999388;28;20514;-77
2022/07/25 02:10:03;;;;;;;3.03;1.20;;;21.90;59.50;;;;;;4998970;28;20034;-77
2022/07/25 02:12:29;;;;;;;2.40;1.38;;;21.90;59.80;;;;;;4998586;28;20014;-77
2022/07/25 02:14:58;;;;;;;4.13;1.20;;;21.90;59.70;;;;;;4999283;28;20453;-77
2022/07/25 02:17:24;;;;;;;2.15;1.40;;;21.90;60.70;;;;;;4999274;28;20027;-77
2022/07/25 02:19:50;;;;;;;3.63;1.50;;;21.80;60.30;;;;;;4997583;28;20164;-77
2022/07/25 02:22:16;;;;;;;1.85;1.35;;;21.80;60.50;;;;;;4999174;28;20507;-77
2022/07/25 02:24:41;;;;;;;1.90;1.42;;;21.80;60.90;;;;;;4999229;28;20039;-77
2022/07/25 02:27:07;;;;;;;1.80;1.30;;;21.80;60.90;;;;;;4998523;28;20026;-77
2022/07/25 02:29:33;;;;;;;1.77;1.20;;;21.80;61.00;;;;;;4998048;28;20034;-77
2022/07/25 02:31:58;;;;;;;1.95;1.20;;;21.90;61.30;;;;;;4998348;28;20036;-77
2022/07/25 02:34:24;;;;;;;5.03;1.67;;;21.90;60.90;;;;;;4999180;28;20038;-77
2022/07/25 02:36:50;;;;;;;3.05;1.30;;;21.90;60.90;;;;;;4998716;28;20097;-77
2022/07/25 02:39:16;;;;;;;2.17;1.20;;;21.90;61.80;;;;;;4998424;28;20094;-77
2022/07/25 02:41:42;;;;;;;3.38;1.58;;;21.80;61.90;;;;;;4998790;28;20046;-77
2022/07/25 02:44:08;;;;;;;1.75;1.20;;;21.90;61.30;;;;;;4998903;28;20029;-77
2022/07/25 02:46:34;;;;;;;2.03;1.25;;;21.90;61.90;;;;;;4998717;28;20019;-77
2022/07/25 02:49:02;;;;;;;2.75;1.42;;;22.00;61.90;;;;;;4998094;28;20607;-77
2022/07/25 02:51:29;;;;;;;3.15;1.40;;;21.90;61.90;;;;;;4997148;28;20037;-77
2022/07/25 02:53:54;;;;;;;6.35;1.40;;;22.00;61.60;;;;;;4998827;28;20485;-77
2022/07/25 02:56:20;;;;;;;2.00;1.20;;;21.90;62.00;;;;;;4998516;28;20477;-77
2022/07/25 02:58:46;;;;;;;2.90;1.25;;;21.90;62.50;;;;;;4996814;28;20551;-77
2022/07/25 03:01:12;;;;;;;2.25;1.38;;;21.90;61.80;;;;;;4998444;28;20638;-77
2022/07/25 03:03:37;;;;;;;4.55;1.50;;;21.90;61.60;;;;;;4998736;28;20034;-77
2022/07/25 03:06:06;;;;;;;2.63;1.30;;;22.00;61.70;;;;;;5013240;28;20041;-77
2022/07/25 03:08:32;;;;;;;2.42;1.25;;;22.00;62.70;;;;;;4998106;28;20026;-77
2022/07/25 03:10:58;;;;;;;1.95;1.30;;;22.00;61.90;;;;;;4997239;28;20076;-77
2022/07/25 03:13:24;;;;;;;2.08;1.20;;;22.00;61.80;;;;;;4998157;28;20026;-77
2022/07/25 03:15:50;;;;;;;2.10;1.30;;;22.00;62.50;;;;;;4996895;28;20039;-77
2022/07/25 03:18:16;;;;;;;4.22;1.30;;;21.90;62.80;;;;;;4996469;28;20029;-77
2022/07/25 03:20:41;;;;;;;4.20;1.30;;;21.90;63.00;;;;;;4998194;28;20027;-77
2022/07/25 03:23:07;;;;;;;2.08;1.48;;;21.90;63.60;;;;;;5013524;28;20491;-77
2022/07/25 03:25:33;;;;;;;2.25;1.30;;;21.90;64.10;;;;;;4997431;28;20067;-77
2022/07/25 03:27:58;;;;;;;1.80;1.10;;;21.90;63.40;;;;;;4996717;28;20026;-77
2022/07/25 03:30:24;;;;;;;1.90;1.70;;;21.90;63.60;;;;;;4995921;28;20066;-77
2022/07/25 03:32:49;;;;;;;3.15;1.17;;;22.00;63.60;;;;;;4997824;28;20027;-77
2022/07/25 03:35:15;;;;;;;3.47;1.40;;;22.00;63.40;;;;;;4997833;28;20500;-77
2022/07/25 03:37:41;;;;;;;3.45;1.40;;;22.10;63.30;;;;;;4997330;28;20084;-77
2022/07/25 03:40:16;;;;;;;3.42;1.08;;;22.10;63.90;;;;;;4997893;28;20049;-77
2022/07/25 03:42:41;;;;;;;2.00;1.17;;;22.10;64.00;;;;;;4997585;28;20023;-77
2022/07/25 03:45:08;;;;;;;1.40;1.02;;;22.00;64.20;;;;;;4996902;28;20038;-77
2022/07/25 03:47:33;;;;;;;2.00;1.30;;;22.10;63.90;;;;;;4997715;28;20433;-77
2022/07/25 03:49:59;;;;;;;2.65;1.23;;;22.00;64.20;;;;;;4996390;28;20034;-77
2022/07/25 03:52:25;;;;;;;4.07;1.50;;;22.00;64.10;;;;;;4997325;28;20466;-77
2022/07/25 03:54:50;;;;;;;2.05;1.13;;;22.00;65.30;;;;;;4996494;28;20038;-77
2022/07/25 03:57:16;;;;;;;2.08;1.10;;;22.00;65.00;;;;;;4995491;28;20022;-77
2022/07/25 03:59:42;;;;;;;2.25;1.10;;;21.90;65.90;;;;;;4997729;28;20486;-77
2022/07/25 04:02:07;;;;;;;2.42;1.20;;;22.00;66.10;;;;;;4996924;28;20101;-77
2022/07/25 04:04:33;;;;;;;2.38;1.25;;;21.90;66.90;;;;;;4996684;28;20076;-77
2022/07/25 04:06:59;;;;;;;3.33;1.23;;;21.90;66.50;;;;;;5012005;28;20397;-77
2022/07/25 04:09:24;;;;;;;1.58;1.10;;;21.90;67.70;;;;;;5012368;28;20401;-77
2022/07/25 04:11:50;;;;;;;1.77;1.25;;;21.80;68.50;;;;;;4995444;28;20084;-77
2022/07/25 04:14:25;;;;;;;2.33;1.60;;;21.80;69.40;;;;;;4996953;28;20031;-78
2022/07/25 04:16:51;;;;;;;1.70;0.98;;;21.90;69.30;;;;;;4998688;28;20150;-77
2022/07/25 04:19:16;;;;;;;3.40;1.33;;;21.90;69.40;;;;;;4996895;28;20498;-77
2022/07/25 04:21:42;;;;;;;4.55;1.17;;;21.80;70.30;;;;;;5011987;28;20481;-77
2022/07/25 04:24:08;;;;;;;5.35;1.65;;;21.80;70.70;;;;;;4996678;28;20050;-77
2022/07/25 04:26:33;;;;;;;5.50;1.30;;;21.80;70.40;;;;;;4996080;28;20031;-77
2022/07/25 04:29:02;;;;;;;2.03;1.38;;;21.80;69.70;;;;;;4996982;28;20031;-77
2022/07/25 04:31:28;;;;;;;4.57;1.45;;;21.90;69.60;;;;;;4996220;28;20057;-77
2022/07/25 04:33:53;;;;;;;2.90;1.40;;;22.00;70.60;;;;;;4995543;28;20468;-78
2022/07/25 04:36:19;;;;;;;3.38;1.45;;;21.90;70.40;;;;;;4996569;28;20018;-77
2022/07/25 04:38:45;;;;;;;3.42;1.58;;;21.90;70.40;;;;;;5011973;28;20042;-77
2022/07/25 04:41:11;;;;;;;2.53;1.70;;;21.90;70.50;;;;;;5010611;28;20034;-77
2022/07/25 04:43:36;;;;;;;2.20;1.23;;;22.00;70.30;;;;;;4996516;28;20485;-77
2022/07/25 04:46:02;;;;;;;4.15;1.58;;;22.00;70.50;;;;;;4995004;28;20065;-78
2022/07/25 04:48:30;;;;;;;2.33;1.80;;;22.00;69.90;;;;;;4996546;28;20150;-77
2022/07/25 04:50:56;;;;;;;3.03;1.33;;;22.00;70.60;;;;;;4995711;28;20048;-77
2022/07/25 04:53:21;;;;;;;3.00;1.50;;;22.10;70.50;;;;;;4995393;28;20556;-77
2022/07/25 04:55:47;;;;;;;2.58;1.60;;;22.10;69.30;;;;;;4996513;28;20500;-77
2022/07/25 04:58:13;;;;;;;2.90;1.77;;;22.10;70.00;;;;;;4995652;28;20669;-78
2022/07/25 05:00:38;;;;;;;2.50;1.67;;;22.10;71.00;;;;;;4995794;28;20032;-77
2022/07/25 05:03:04;;;;;;;3.97;1.40;;;22.00;70.30;;;;;;4995198;28;20478;-78
2022/07/25 05:05:30;;;;;;;2.28;1.48;;;22.00;71.30;;;;;;5011612;28;20509;-78
2022/07/25 05:07:59;;;;;;;3.85;1.55;;;22.00;70.80;;;;;;5010917;28;20456;-77
2022/07/25 05:10:27;;;;;;;2.47;1.40;;;22.10;70.60;;;;;;4995089;28;20034;-77
2022/07/25 05:12:53;;;;;;;4.40;2.00;;;22.10;70.90;;;;;;4995448;28;20424;-77
2022/07/25 05:15:18;;;;;;;2.90;1.88;;;22.10;71.20;;;;;;4996067;28;20043;-78
2022/07/25 05:17:44;;;;;;;4.13;1.50;;;22.00;71.10;;;;;;5004056;28;20084;-78
2022/07/25 05:20:11;;;;;;;4.25;1.77;;;22.10;70.40;;;;;;5011380;28;20022;-78
2022/07/25 05:22:37;;;;;;;2.70;2.20;;;22.10;70.70;;;;;;4996016;28;20026;-78
2022/07/25 05:25:06;;;;;;;3.10;1.50;;;22.00;70.50;;;;;;4995515;28;20041;-77
2022/07/25 05:27:32;;;;;;;3.55;1.88;;;22.20;70.00;;;;;;4996109;28;20034;-77
2022/07/25 05:29:58;;;;;;;3.50;1.70;;;22.20;69.90;;;;;;4995394;28;20033;-78
2022/07/25 05:32:23;;;;;;;3.35;1.90;;;22.20;69.70;;;;;;4995556;28;20037;-78
2022/07/25 05:34:49;;;;;;;5.78;1.63;;;22.20;69.60;;;;;;4995571;28;20022;-78
2022/07/25 05:37:15;;;;;;;5.90;2.33;;;22.10;70.00;;;;;;4994915;28;20038;-78
2022/07/25 05:39:41;;;;;;;3.50;1.85;;;22.20;69.70;;;;;;4995279;28;20037;-78
2022/07/25 05:42:07;;;;;;;4.32;1.90;;;22.20;69.50;;;;;;4995209;28;20039;-78
2022/07/25 05:44:33;;;;;;;3.95;1.98;;;22.30;69.20;;;;;;4995925;28;20481;-78
2022/07/25 05:46:58;;;;;;;3.17;2.30;;;22.40;69.00;;;;;;4995886;28;20029;-77
2022/07/25 05:49:24;;;;;;;3.42;1.65;;;22.50;68.70;;;;;;4995704;28;20077;-78
2022/07/25 05:51:50;;;;;;;4.03;2.10;;;22.40;68.60;;;;;;4995227;28;20567;-78
2022/07/25 05:54:16;;;;;;;3.53;1.65;;;22.50;68.40;;;;;;4995124;28;20026;-77
2022/07/25 05:56:42;;;;;;;2.30;1.65;;;22.40;68.40;;;;;;4995230;28;20038;-78
2022/07/25 05:59:08;;;;;;;4.38;1.55;;;22.30;68.50;;;;;;4995581;28;20027;-78
2022/07/25 06:01:33;;;;;;;4.32;2.10;;;22.30;68.30;;;;;;4995552;28;20030;-78
2022/07/25 06:03:59;;;;;;;7.53;2.20;;;22.20;68.50;;;;;;4995499;28;20045;-78
2022/07/25 06:06:25;;;;;;;3.60;1.67;;;22.20;68.10;;;;;;4995256;28;20033;-77
2022/07/25 06:08:50;;;;;;;6.28;1.73;;;22.20;67.60;;;;;;4995869;28;20122;-77
2022/07/25 06:11:16;;;;;;;6.30;2.45;;;22.20;67.60;;;;;;4994921;28;20029;-78
2022/07/25 06:13:42;;;;;;;5.97;2.00;;;22.10;67.80;;;;;;4995034;28;20035;-78
2022/07/25 06:16:08;;;;;;;4.43;2.03;;;22.00;68.00;;;;;;4995513;28;20519;-78
2022/07/25 06:18:33;;;;;;;5.13;2.05;;;22.00;67.40;;;;;;4994292;28;20473;-77
2022/07/25 06:20:59;;;;;;;3.90;1.70;;;22.00;67.10;;;;;;5010457;28;20478;-78
2022/07/25 06:23:25;;;;;;;6.03;1.90;;;22.00;67.30;;;;;;4994967;28;20037;-78
2022/07/25 06:25:51;;;;;;;3.38;1.67;;;22.00;67.50;;;;;;4994407;28;20155;-78
2022/07/25 06:28:16;;;;;;;6.00;2.50;;;21.90;67.70;;;;;;4995340;28;20394;-77
2022/07/25 06:30:45;;;;;;;3.95;2.10;;;22.00;67.60;;;;;;4994190;28;20034;-78
2022/07/25 06:33:12;;;;;;;4.55;1.80;;;22.10;67.30;;;;;;4994264;28;20024;-77
2022/07/25 06:35:38;;;;;;;6.25;2.22;;;22.10;66.70;;;;;;5010722;28;20033;-78
2022/07/25 06:38:04;;;;;;;5.93;2.30;;;22.10;66.40;;;;;;4994621;28;20493;-78
2022/07/25 06:40:30;;;;;;;5.65;2.38;;;22.20;66.10;;;;;;4995363;28;20359;-78
2022/07/25 06:42:55;;;;;;;6.80;1.88;;;22.20;65.70;;;;;;4994547;28;20057;-78
2022/07/25 06:45:21;;;;;;;5.38;2.45;;;22.10;65.50;;;;;;4995723;28;20109;-78
2022/07/25 06:47:47;;;;;;;3.40;2.35;;;22.20;65.10;;;;;;4994703;28;20481;-78
2022/07/25 06:50:17;;;;;;;7.90;2.10;;;22.30;64.80;;;;;;4996381;28;20448;-77
2022/07/25 06:52:43;;;;;;;6.00;1.83;;;22.30;64.50;;;;;;4998822;28;20058;-78
2022/07/25 06:55:10;;;;;;;4.10;1.80;;;22.60;64.30;;;;;;4998188;28;20684;-78
2022/07/25 06:57:36;;;;;;;6.32;2.20;;;22.60;64.10;;;;;;4998545;28;20037;-78
2022/07/25 07:00:08;;;;;;;6.68;2.17;;;22.80;63.40;;;;;;4997984;28;20044;-77
2022/07/25 07:02:45;;;;;;;3.90;2.10;;;22.80;63.00;;;;;;4998548;28;20033;-78
2022/07/25 07:05:11;;;;;;;6.18;2.00;;;22.90;62.40;;;;;;4998229;28;20480;-78
2022/07/25 07:07:37;;;;;;;8.73;2.70;;;23.00;61.90;;;;;;4997755;28;20058;-78
2022/07/25 07:10:03;;;;;;;8.15;2.70;;;23.00;61.90;;;;;;4998340;28;20034;-78
2022/07/25 07:12:28;;;;;;;4.07;1.80;;;23.10;61.30;;;;;;4997739;28;20109;-78
2022/07/25 07:14:54;;;;;;;6.18;2.25;;;23.00;61.30;;;;;;4998097;28;20081;-78
2022/07/25 07:17:20;;;;;;;4.57;1.90;;;22.90;61.40;;;;;;4998192;28;20037;-78
2022/07/25 07:19:45;;;;;;;4.35;1.67;;;23.00;61.20;;;;;;4997675;28;20026;-78
2022/07/25 07:22:11;;;;;;;5.10;2.15;;;23.30;60.60;;;;;;4997076;28;20056;-78
2022/07/25 07:24:37;;;;;;;7.30;2.25;;;23.30;59.80;;;;;;4998078;28;20378;-78
2022/07/25 07:27:02;;;;;;;4.68;2.20;;;23.60;59.00;;;;;;4996767;28;20038;-78
2022/07/25 07:29:28;;;;;;;3.45;1.75;;;23.80;58.20;;;;;;4997964;28;20049;-78
2022/07/25 07:31:54;;;;;;;3.63;1.70;;;26.00;53.00;;;;;;5013225;28;20031;-79
2022/07/25 07:34:20;;;;;;;3.63;1.40;;;29.50;46.00;;;;;;4997941;28;20022;-79
2022/07/25 07:36:46;;;;;;;3.30;1.65;;;30.40;41.30;;;;;;4997409;28;20117;-79
2022/07/25 07:39:11;;;;;;;5.95;1.63;;;32.30;38.20;;;;;;4996910;28;20023;-79
2022/07/25 07:41:37;;;;;;;4.25;1.52;;;31.80;37.60;;;;;;4997277;28;20026;-79
2022/07/25 07:44:04;;;;;;;7.47;1.80;;;30.00;40.60;;;;;;4997682;28;20224;-79
2022/07/25 07:46:30;;;;;;;4.22;1.65;;;29.60;42.50;;;;;;4996540;28;20030;-79
2022/07/25 07:48:55;;;;;;;5.28;1.42;;;31.50;37.40;;;;;;4996421;28;20080;-79
2022/07/25 07:51:21;;;;;;;4.38;1.80;;;31.30;39.20;;;;;;4997484;28;20038;-80
2022/07/25 07:56:31;;;;;;;3.13;1.17;;;34.70;31.50;;;;;;4997762;28;20619;-79
2022/07/25 07:58:56;;;;;;;3.25;1.35;;;35.60;31.60;;;;;;4996880;28;20066;-78
2022/07/25 08:01:23;;;;;;;4.95;1.30;;;35.50;30.80;;;;;;4996040;28;20041;-79
2022/07/25 08:03:49;;;;;;;3.42;1.10;;;34.40;31.90;;;;;;4997203;28;20026;-79
2022/07/25 08:06:15;;;;;;;5.55;1.38;;;32.60;34.40;;;;;;4996892;28;20038;-79
2022/07/25 08:08:40;;;;;;;9.73;1.50;;;30.80;36.40;;;;;;5012503;28;20117;-78
2022/07/25 08:11:06;;;;;;;4.78;1.42;;;29.60;39.10;;;;;;4996549;28;20034;-78
2022/07/25 08:13:33;;;;;;;3.38;1.30;;;28.90;40.80;;;;;;4997109;28;20034;-78
2022/07/25 08:16:01;;;;;;;2.97;1.10;;;28.90;41.40;;;;;;4996968;28;20046;-78
2022/07/25 08:18:31;;;;;;;7.45;1.77;;;27.90;41.70;;;;;;4996742;28;20571;-78
2022/07/25 08:20:57;;;;;;;3.00;1.33;;;27.40;43.10;;;;;;4996364;28;20485;-78
2022/07/25 08:23:24;;;;;;;3.85;1.35;;;27.10;44.00;;;;;;5011837;28;20034;-78
2022/07/25 08:25:50;;;;;;;7.38;1.63;;;26.50;45.20;;;;;;4995837;28;20014;-78
2022/07/25 08:28:16;;;;;;;4.53;1.30;;;26.30;45.70;;;;;;5011919;28;20033;-78
2022/07/25 08:30:42;;;;;;;3.72;1.50;;;25.90;46.20;;;;;;4996715;28;20034;-78
2022/07/25 08:33:11;;;;;;;3.90;1.55;;;25.80;46.70;;;;;;4997054;28;20088;-78
2022/07/25 08:35:38;;;;;;;5.57;1.52;;;25.50;47.30;;;;;;4995373;28;20110;-78
2022/07/25 08:38:05;;;;;;;5.60;1.42;;;25.50;48.00;;;;;;4995965;28;20637;-78
2022/07/25 08:40:32;;;;;;;6.90;1.67;;;25.40;48.20;;;;;;4995285;28;20105;-78
2022/07/25 08:42:58;;;;;;;3.65;1.50;;;25.40;48.50;;;;;;4991551;28;20065;-78
2022/07/25 08:45:26;;;;;;;5.47;1.52;;;25.30;48.50;;;;;;4977190;28;20039;-78
2022/07/25 08:47:53;;;;;;;5.75;1.77;;;25.10;49.10;;;;;;4994159;28;20035;-78
2022/07/25 08:50:21;;;;;;;4.85;1.60;;;25.30;49.30;;;;;;5011441;28;20034;-78
2022/07/25 08:52:48;;;;;;;4.97;1.85;;;25.50;49.10;;;;;;4996617;28;20079;-78
2022/07/25 08:55:19;;;;;;;6.22;1.48;;;28.10;44.40;;;;;;5010776;28;20030;-79
2022/07/25 08:57:45;;;;;;;3.40;1.00;;;30.90;39.30;;;;;;4994582;28;20026;-79
2022/07/25 09:00:14;;;;;;;4.03;1.30;;;32.50;36.30;;;;;;4996344;28;20022;-79
2022/07/25 09:02:41;;;;;;;2.00;1.08;;;33.40;33.00;;;;;;5007919;28;20038;-79
2022/07/25 09:05:08;;;;;;;6.70;1.50;;;34.00;31.70;;;;;;4976785;28;20030;-79
2022/07/25 09:07:36;;;;;;;5.22;1.60;;;32.40;34.30;;;;;;4977016;28;20034;-78
2022/07/25 09:10:31;;;;;;;5.53;1.30;;;31.00;36.30;;;;;;4992224;28;20037;-78
2022/07/25 09:13:06;;;;;;;4.65;0.93;;;29.70;38.00;;;;;;4990485;28;20042;-78
2022/07/25 09:15:35;;;;;;;5.13;1.30;;;29.00;39.30;;;;;;4995627;28;20109;-78
2022/07/25 09:18:04;;;;;;;3.53;0.80;;;29.10;39.30;;;;;;4995444;28;20062;-79
2022/07/25 09:20:37;;;;;;;;;;;29.50;37.40;;;;;;4995368;28;20368;-78
2022/07/25 09:23:03;;;;;;;4.13;1.08;;;29.00;37.50;;;;;;4996015;28;19916;-78
2022/07/25 09:25:29;;;;;;;6.07;1.27;;;29.10;38.30;;;;;;4995629;28;20070;-78
2022/07/25 09:28:08;;;;;;;4.75;0.85;;;29.50;37.70;;;;;;4995732;28;20038;-78
2022/07/25 09:30:34;;;;;;;2.25;0.70;;;29.40;37.20;;;;;;4995483;28;20062;-78
2022/07/25 09:33:00;;;;;;;5.15;0.98;;;29.20;37.60;;;;;;5010492;28;20066;-78
2022/07/25 09:35:37;;;;;;;3.92;1.20;;;29.30;37.20;;;;;;5010879;28;20030;-78
2022/07/25 09:38:10;;;;;;;3.28;0.70;;;29.30;38.00;;;;;;4995447;28;20026;-79
2022/07/25 09:40:36;;;;;;;2.25;1.00;;;29.50;38.00;;;;;;4994696;28;20034;-78
2022/07/25 09:43:02;;;;;;;2.75;0.70;;;30.70;35.80;;;;;;4995216;28;20101;-79
2022/07/25 09:45:28;;;;;;;4.78;1.00;;;31.10;34.40;;;;;;4995766;28;20110;-79
2022/07/25 09:47:56;;;;;;;3.38;0.82;;;31.00;34.60;;;;;;4995516;28;20062;-79
2022/07/25 09:50:23;;;;;;;2.28;0.63;;;32.30;32.40;;;;;;4996029;28;20038;-79
2022/07/25 09:52:53;;;;;;;2.38;0.70;;;32.30;32.70;;;;;;4995206;28;20038;-79
2022/07/25 09:55:20;;;;;;;3.05;0.80;;;31.40;33.60;;;;;;4995703;28;20390;-78
2022/07/25 09:57:47;;;;;;;5.15;0.93;;;30.50;35.30;;;;;;4995207;28;20086;-78
2022/07/25 10:00:17;;;;;;;2.22;0.77;;;30.00;36.30;;;;;;4995702;28;20053;-79
2022/07/25 10:03:09;;;;;;;3.92;0.70;;;29.30;37.30;;;;;;4995096;28;20029;-78
2022/07/25 10:06:12;;;;;;;2.10;0.90;;;30.70;35.20;;;;;;5010755;28;20080;-79
2022/07/25 10:08:40;;;;;;;4.88;1.00;;;33.00;32.20;;;;;;4994988;28;20034;-79
2022/07/25 10:11:26;;;;;;;2.78;0.95;;;34.10;31.20;;;;;;4995775;28;20027;-79
2022/07/25 10:13:53;;;;;;;3.45;0.88;;;34.60;29.60;;;;;;4994836;28;20458;-78
2022/07/25 10:16:24;;;;;;;3.38;1.45;;;33.60;30.60;;;;;;4993864;28;20050;-79
2022/07/25 10:18:52;;;;;;;4.80;0.95;;;32.50;32.90;;;;;;4995590;28;20401;-78
2022/07/25 10:21:19;;;;;;;2.90;1.20;;;31.40;33.70;;;;;;4995057;28;20553;-78
2022/07/25 10:23:55;;;;;;;6.13;1.10;;;30.90;35.30;;;;;;5009073;28;20089;-78
2022/07/25 10:26:22;;;;;;;3.30;1.10;;;31.50;34.90;;;;;;4999327;28;20165;-79
2022/07/25 10:28:51;;;;;;;3.00;1.08;;;33.20;33.10;;;;;;4999047;28;20041;-79
2022/07/25 10:31:23;;;;;;;5.30;0.90;;;33.00;32.80;;;;;;5013253;28;20034;-79
2022/07/25 10:34:07;;;;;;;2.58;0.80;;;32.10;33.50;;;;;;4998531;28;20037;-78
2022/07/25 10:36:46;;;;;;;3.45;1.10;;;30.90;34.80;;;;;;4998545;28;20057;-79
2022/07/25 10:39:14;;;;;;;4.15;0.85;;;30.20;35.90;;;;;;4998596;28;20033;-78
2022/07/25 10:41:43;;;;;;;6.22;1.08;;;30.40;35.80;;;;;;5014254;28;20045;-78
2022/07/25 10:44:14;;;;;;;2.38;0.65;;;30.70;35.20;;;;;;4998857;28;20058;-78
2022/07/25 10:46:42;;;;;;;4.10;0.98;;;30.30;34.60;;;;;;4998294;28;20030;-78
2022/07/25 10:49:19;;;;;;;3.37;0.83;;;30.40;35.50;;;;;;5013900;28;20054;-78
2022/07/25 10:51:55;;;;;;;3.35;0.65;;;30.10;36.40;;;;;;4998459;28;20313;-79
2022/07/25 10:54:21;;;;;;;1.63;0.50;;;30.20;36.40;;;;;;4998229;28;20022;-78
2022/07/25 10:56:55;;;;;;;3.55;0.75;;;30.30;36.10;;;;;;4998554;28;20362;-78
2022/07/25 10:59:33;;;;;;;1.70;0.63;;;30.40;36.50;;;;;;4998642;28;20030;-78
2022/07/25 11:02:00;;;;;;;2.85;0.55;;;30.30;36.20;;;;;;4997933;28;20022;-78
2022/07/25 11:04:26;;;;;;;4.75;0.60;;;30.20;35.50;;;;;;4998418;28;20038;-78
2022/07/25 11:07:34;;;;;;;2.38;0.50;;;30.30;35.00;;;;;;4997434;28;20037;-78
2022/07/25 11:10:02;;;;;;;3.22;1.10;;;30.40;35.40;;;;;;4998267;28;20119;-79
2022/07/25 11:12:28;;;;;;;2.47;0.60;;;30.40;34.80;;;;;;4997648;28;20093;-78
2022/07/25 11:15:06;;;;;;;1.13;0.30;;;30.40;34.50;;;;;;4997174;28;20122;-78
2022/07/25 11:17:33;;;;;;;2.15;0.60;;;30.20;33.90;;;;;;5009044;28;20026;-79
2022/07/25 11:20:03;;;;;;;2.05;0.55;;;30.10;34.80;;;;;;4996927;28;20027;-78
2022/07/25 11:22:31;;;;;;;3.42;0.70;;;29.90;34.60;;;;;;4997666;28;20056;-78
2022/07/25 11:24:58;;;;;;;2.42;0.47;;;29.80;34.80;;;;;;4997541;28;20081;-78
2022/07/25 11:27:32;;;;;;;2.28;0.68;;;29.70;34.30;;;;;;4998011;28;20077;-78
2022/07/25 11:30:10;;;;;;;5.05;0.93;;;29.50;34.70;;;;;;5012997;28;20073;-78
2022/07/25 11:32:45;;;;;;;2.25;0.52;;;29.20;34.70;;;;;;4978719;28;20113;-78
2022/07/25 11:35:12;;;;;;;2.05;0.50;;;29.20;35.60;;;;;;4979575;28;20019;-78
2022/07/25 11:37:40;;;;;;;1.10;0.50;;;29.30;35.30;;;;;;4997100;28;20101;-78
2022/07/25 11:40:07;;;;;;;3.40;0.70;;;29.50;35.10;;;;;;4997912;28;20046;-78
2022/07/25 11:42:59;;;;;;;1.92;0.57;;;29.50;35.30;;;;;;4996892;28;20030;-78
2022/07/25 11:45:27;;;;;;;3.60;0.50;;;29.00;35.50;;;;;;4996611;28;20076;-78
2022/07/25 11:48:12;;;;;;;2.17;0.60;;;29.10;35.70;;;;;;4997188;28;20074;-78
2022/07/25 11:50:40;;;;;;;3.03;0.57;;;29.30;35.10;;;;;;4997483;28;20026;-78
2022/07/25 11:53:08;;;;;;;4.60;0.57;;;29.40;35.10;;;;;;4997764;28;20041;-78
2022/07/25 11:55:39;;;;;;;3.72;0.60;;;29.30;34.70;;;;;;4995572;28;20023;-78
2022/07/25 11:58:05;;;;;;;2.85;0.55;;;29.20;34.50;;;;;;4997356;28;20497;-78
2022/07/25 12:00:35;;;;;;;2.85;0.52;;;29.10;35.00;;;;;;4997340;28;20030;-78
2022/07/25 12:03:11;;;;;;;2.95;0.55;;;28.90;34.90;;;;;;4996527;28;20037;-78
2022/07/25 12:05:37;;;;;;;2.15;0.43;;;29.00;35.60;;;;;;4997288;28;20036;-78
2022/07/25 12:08:11;;;;;;;4.03;0.50;;;29.10;36.00;;;;;;4996199;28;20114;-78
2022/07/25 12:10:38;;;;;;;3.58;0.82;;;29.20;36.60;;;;;;5012157;28;20489;-78
2022/07/25 12:13:06;;;;;;;1.73;0.50;;;29.30;35.70;;;;;;4996605;28;20026;-78
2022/07/25 12:15:38;;;;;;;2.75;0.65;;;29.20;35.20;;;;;;4997032;28;20038;-78
2022/07/25 12:18:05;;;;;;;1.33;0.30;;;28.90;34.70;;;;;;4996576;28;20031;-78
2022/07/25 12:20:38;;;;;;;2.65;0.50;;;28.80;35.80;;;;;;4996541;28;20039;-78
2022/07/25 12:23:08;;;;;;;3.10;0.60;;;29.00;35.70;;;;;;4996498;28;20513;-78
2022/07/25 12:25:39;;;;;;;2.53;0.70;;;28.90;35.10;;;;;;5012197;28;20038;-78
2022/07/25 12:28:06;;;;;;;3.53;0.60;;;28.90;34.90;;;;;;4996836;28;20026;-78
2022/07/25 12:30:32;;;;;;;2.55;0.60;;;28.80;34.50;;;;;;4996445;28;20026;-78
2022/07/25 12:32:59;;;;;;;2.58;0.65;;;28.80;34.70;;;;;;4995652;28;20026;-78
2022/07/25 12:35:26;;;;;;;1.95;0.55;;;28.80;34.30;;;;;;5011935;28;20026;-78
2022/07/25 12:37:52;;;;;;;2.38;0.57;;;29.00;34.90;;;;;;4994681;28;20030;-78
2022/07/25 12:40:19;;;;;;;3.70;0.50;;;29.20;34.50;;;;;;4995622;28;20133;-78
2022/07/25 12:42:45;;;;;;;2.35;0.60;;;29.30;34.70;;;;;;4996040;28;20030;-78
2022/07/25 12:45:12;;;;;;;2.15;0.55;;;29.60;34.40;;;;;;4996645;28;20030;-78
2022/07/25 12:47:38;;;;;;;1.67;0.57;;;29.80;34.50;;;;;;4995880;28;20053;-78
2022/07/25 12:50:05;;;;;;;2.28;0.52;;;29.90;33.70;;;;;;4996391;28;20034;-78
2022/07/25 12:52:31;;;;;;;4.30;0.60;;;30.00;33.20;;;;;;4996031;28;20371;-78